Time;durP1;ratioP1;P1;durP2;ratioP2;P2;SDS_P1;SDS_P2;PMS_P1;PMS_P2;Temp;Humidity;BMP_temperature;BMP_pressure;BME280_temperature;BME280_humidity;BME280_pressure;Samples;Min_cycle;Max_cycle;Signal;HPM_P1;HPM_P2
2023/04/15 00:00:36;;;;;;;4.72;2.13;;;9.30;99.90;;;;;;5071607;28;20119;-84
2023/04/15 00:03:02;;;;;;;4.68;2.17;;;9.30;99.90;;;;;;5074079;28;20501;-82
2023/04/15 00:05:32;;;;;;;4.03;2.67;;;9.20;99.90;;;;;;5074723;28;20016;-82
2023/04/15 00:07:57;;;;;;;3.72;2.20;;;9.20;99.90;;;;;;5070599;28;20031;-83
2023/04/15 00:10:24;;;;;;;3.20;2.03;;;9.10;99.90;;;;;;5071368;28;20024;-84
2023/04/15 00:12:50;;;;;;;4.72;2.10;;;9.10;99.90;;;;;;5071837;28;20424;-82
2023/04/15 00:15:16;;;;;;;4.18;2.40;;;9.10;99.90;;;;;;5086719;28;20021;-82
2023/04/15 00:17:41;;;;;;;3.97;2.10;;;9.10;99.90;;;;;;5090303;28;20609;-81
2023/04/15 00:20:09;;;;;;;4.80;2.58;;;9.00;99.90;;;;;;5091955;28;20054;-79
2023/04/15 00:22:35;;;;;;;6.38;2.58;;;9.00;99.90;;;;;;5092425;28;20089;-81
2023/04/15 00:25:02;;;;;;;5.53;2.60;;;9.00;99.90;;;;;;5075994;28;20027;-83
2023/04/15 00:27:28;;;;;;;4.10;2.50;;;9.00;99.90;;;;;;5090545;28;20024;-82
2023/04/15 00:29:54;;;;;;;3.90;2.08;;;8.90;99.90;;;;;;5077495;28;20043;-81
2023/04/15 00:32:19;;;;;;;4.63;2.45;;;8.90;99.90;;;;;;5077692;28;20031;-81
2023/04/15 00:34:45;;;;;;;4.65;2.47;;;8.90;99.90;;;;;;5073151;28;20462;-77
2023/04/15 00:37:11;;;;;;;5.00;3.38;;;8.90;99.90;;;;;;5089582;28;20465;-81
2023/04/15 00:39:37;;;;;;;4.72;2.40;;;8.90;99.90;;;;;;5076859;28;20024;-81
2023/04/15 00:42:04;;;;;;;5.88;2.30;;;8.80;99.90;;;;;;5089135;28;20020;-81
2023/04/15 00:44:30;;;;;;;5.70;2.72;;;8.80;99.90;;;;;;5077197;28;20401;-81
2023/04/15 00:46:56;;;;;;;4.22;2.42;;;8.80;99.90;;;;;;5076694;28;20032;-81
2023/04/15 00:49:22;;;;;;;4.80;2.50;;;8.80;99.90;;;;;;5076172;28;20078;-81
2023/04/15 00:51:48;;;;;;;4.05;2.40;;;8.80;99.90;;;;;;5076778;28;20024;-82
2023/04/15 00:54:13;;;;;;;4.53;2.50;;;8.70;99.90;;;;;;5076834;28;20031;-81
2023/04/15 00:56:39;;;;;;;4.28;2.30;;;8.70;99.90;;;;;;5087777;28;20497;-81
2023/04/15 00:59:06;;;;;;;3.88;2.17;;;8.70;99.90;;;;;;5089279;28;20034;-84
2023/04/15 01:01:34;;;;;;;4.68;2.40;;;8.60;99.90;;;;;;5076818;28;20078;-82
2023/04/15 01:04:00;;;;;;;3.75;2.53;;;8.60;99.90;;;;;;5077835;28;20032;-81
2023/04/15 01:06:26;;;;;;;5.35;2.70;;;8.60;99.90;;;;;;5088736;28;20021;-82
2023/04/15 01:08:53;;;;;;;3.90;2.30;;;8.60;99.90;;;;;;5089209;28;20203;-83
2023/04/15 01:11:18;;;;;;;4.07;2.40;;;8.60;99.90;;;;;;5069526;28;20069;-83
2023/04/15 01:13:45;;;;;;;4.68;2.40;;;8.60;99.90;;;;;;5079623;28;20469;-83
2023/04/15 01:16:12;;;;;;;4.15;2.20;;;8.60;99.90;;;;;;5081019;28;20034;-82
2023/04/15 01:18:38;;;;;;;4.47;2.38;;;8.50;99.90;;;;;;5076480;28;20461;-82
2023/04/15 01:21:05;;;;;;;4.75;2.67;;;8.60;99.90;;;;;;5089443;28;20481;-84
2023/04/15 01:23:32;;;;;;;3.72;2.30;;;8.50;99.90;;;;;;5089057;28;20387;-80
2023/04/15 01:25:58;;;;;;;4.65;2.70;;;8.50;99.90;;;;;;5072634;28;20412;-82
2023/04/15 01:28:24;;;;;;;4.72;2.47;;;8.50;99.90;;;;;;5076694;28;20107;-81
2023/04/15 01:31:04;;;;;;;4.57;2.60;;;8.40;99.90;;;;;;5076161;28;20028;-81
2023/04/15 01:33:30;;;;;;;4.20;2.40;;;8.40;99.90;;;;;;5077900;28;20393;-83
2023/04/15 01:35:56;;;;;;;4.47;2.38;;;8.40;99.90;;;;;;5089254;28;20031;-82
2023/04/15 01:38:21;;;;;;;3.88;2.42;;;8.40;99.90;;;;;;5076618;28;20089;-79
2023/04/15 01:40:47;;;;;;;5.65;2.55;;;8.40;99.90;;;;;;5088873;28;20583;-82
2023/04/15 01:43:14;;;;;;;4.45;2.70;;;8.40;99.90;;;;;;5077907;28;20028;-81
2023/04/15 01:45:39;;;;;;;2.90;2.20;;;8.40;99.90;;;;;;5076991;28;20496;-82
2023/04/15 01:48:06;;;;;;;4.97;2.67;;;8.40;99.90;;;;;;5075935;28;20031;-84
2023/04/15 01:50:31;;;;;;;4.13;2.50;;;8.40;99.90;;;;;;5076179;28;20076;-82
2023/04/15 01:52:57;;;;;;;5.05;2.28;;;8.40;99.90;;;;;;5088674;28;20503;-81
2023/04/15 01:55:22;;;;;;;3.72;2.55;;;8.40;99.90;;;;;;5076522;28;20024;-80
2023/04/15 01:57:48;;;;;;;4.00;2.35;;;8.30;99.90;;;;;;5087783;28;20093;-84
2023/04/15 02:00:14;;;;;;;4.10;2.30;;;8.30;99.90;;;;;;5088003;28;20067;-82
2023/04/15 02:02:40;;;;;;;4.57;2.88;;;8.30;99.90;;;;;;5075621;28;20036;-81
2023/04/15 02:05:05;;;;;;;5.45;2.75;;;8.30;99.90;;;;;;5076540;28;20547;-81
2023/04/15 02:07:31;;;;;;;4.68;2.70;;;8.30;99.90;;;;;;5074144;28;20386;-82
2023/04/15 02:09:57;;;;;;;4.20;2.40;;;8.30;99.90;;;;;;5089724;28;20042;-82
2023/04/15 02:12:22;;;;;;;5.88;2.78;;;8.20;99.90;;;;;;5079309;28;20024;-82
2023/04/15 02:14:48;;;;;;;5.72;2.97;;;8.20;99.90;;;;;;5070966;28;20030;-82
2023/04/15 02:17:13;;;;;;;4.88;2.78;;;8.20;99.90;;;;;;5075593;28;20111;-83
2023/04/15 02:19:40;;;;;;;4.38;2.80;;;8.20;99.90;;;;;;5076543;28;20028;-80
2023/04/15 02:22:06;;;;;;;4.10;2.40;;;8.20;99.90;;;;;;5088313;28;20020;-82
2023/04/15 02:24:33;;;;;;;3.20;1.98;;;8.20;99.90;;;;;;5075446;28;20016;-80
2023/04/15 02:26:58;;;;;;;3.67;2.50;;;8.20;99.90;;;;;;5089406;28;20480;-82
2023/04/15 02:29:24;;;;;;;4.53;2.72;;;8.20;99.90;;;;;;5087611;28;20032;-81
2023/04/15 02:31:49;;;;;;;4.38;2.70;;;8.20;99.90;;;;;;5074154;28;20035;-81
2023/04/15 02:34:15;;;;;;;3.90;2.63;;;8.10;99.90;;;;;;5074093;28;20019;-82
2023/04/15 02:36:41;;;;;;;5.18;2.95;;;8.10;99.90;;;;;;5078543;28;20024;-81
2023/04/15 02:39:06;;;;;;;4.57;2.92;;;8.10;99.90;;;;;;5076445;28;20123;-82
2023/04/15 02:41:32;;;;;;;3.65;2.50;;;8.10;99.90;;;;;;5075627;28;20770;-81
2023/04/15 02:43:57;;;;;;;5.05;3.10;;;8.10;99.90;;;;;;5074930;28;20265;-80
2023/04/15 02:46:23;;;;;;;4.20;2.85;;;8.00;99.90;;;;;;5073539;28;20020;-79
2023/04/15 02:48:49;;;;;;;4.68;2.83;;;8.10;99.90;;;;;;5076603;28;20032;-81
2023/04/15 02:51:18;;;;;;;5.70;3.60;;;8.10;99.90;;;;;;5074538;28;20473;-79
2023/04/15 02:53:44;;;;;;;4.80;3.30;;;8.10;99.90;;;;;;5076328;28;20036;-81
2023/04/15 02:56:11;;;;;;;4.75;3.45;;;8.10;99.90;;;;;;5075419;28;20068;-82
2023/04/15 02:58:38;;;;;;;4.82;3.33;;;8.10;99.90;;;;;;5087277;28;20032;-83
2023/04/15 03:01:03;;;;;;;5.30;3.90;;;8.10;99.90;;;;;;5087500;28;20156;-82
2023/04/15 03:03:29;;;;;;;5.55;3.10;;;8.10;99.90;;;;;;5075002;28;20028;-82
2023/04/15 03:05:55;;;;;;;5.50;3.05;;;8.10;99.90;;;;;;5088270;28;20123;-81
2023/04/15 03:08:21;;;;;;;5.45;3.35;;;8.10;99.90;;;;;;5087395;28;20028;-82
2023/04/15 03:10:47;;;;;;;5.15;3.40;;;8.10;99.90;;;;;;5075848;28;20390;-82
2023/04/15 03:13:12;;;;;;;5.43;3.05;;;8.10;99.90;;;;;;5075362;28;20522;-82
2023/04/15 03:15:38;;;;;;;4.15;2.92;;;8.10;99.90;;;;;;5074531;28;20020;-83
2023/04/15 03:18:04;;;;;;;5.00;2.92;;;8.00;99.90;;;;;;5073842;28;20105;-83
2023/04/15 03:20:30;;;;;;;5.25;3.10;;;8.00;99.90;;;;;;5075822;28;20032;-83
2023/04/15 03:22:55;;;;;;;4.75;3.28;;;8.00;99.90;;;;;;5088401;28;20123;-82
2023/04/15 03:25:21;;;;;;;4.97;3.72;;;8.00;99.90;;;;;;5087968;28;20134;-84
2023/04/15 03:27:46;;;;;;;6.20;3.53;;;7.90;99.90;;;;;;5074461;28;20123;-81
2023/04/15 03:30:12;;;;;;;4.72;3.25;;;7.90;99.90;;;;;;5087563;28;20020;-80
2023/04/15 03:32:38;;;;;;;4.38;3.13;;;7.90;99.90;;;;;;5086496;28;20028;-81
2023/04/15 03:35:04;;;;;;;5.05;3.30;;;7.90;99.90;;;;;;5086090;28;20031;-80
2023/04/15 03:37:30;;;;;;;4.60;3.38;;;7.90;99.90;;;;;;5075959;28;20040;-79
2023/04/15 03:39:55;;;;;;;6.72;3.08;;;7.80;99.90;;;;;;5087404;28;20371;-80
2023/04/15 03:42:21;;;;;;;6.22;3.80;;;7.80;99.90;;;;;;5086892;28;20028;-82
2023/04/15 03:44:47;;;;;;;6.43;4.25;;;7.80;99.90;;;;;;5073914;28;20027;-81
2023/04/15 03:47:12;;;;;;;5.85;3.72;;;7.80;99.90;;;;;;5087610;28;20039;-83
2023/04/15 03:49:38;;;;;;;6.72;3.85;;;7.70;99.90;;;;;;5074990;28;20032;-81
2023/04/15 03:52:04;;;;;;;5.32;3.45;;;7.70;99.90;;;;;;5073332;28;20478;-81
2023/04/15 03:54:30;;;;;;;4.88;3.22;;;7.70;99.90;;;;;;5087177;28;20395;-84
2023/04/15 03:56:56;;;;;;;4.22;3.22;;;7.70;99.90;;;;;;5087619;28;20311;-82
2023/04/15 03:59:22;;;;;;;5.78;3.40;;;7.70;99.90;;;;;;5086804;28;20059;-82
2023/04/15 04:01:47;;;;;;;4.78;3.40;;;7.70;99.90;;;;;;5073870;28;20020;-82
2023/04/15 04:04:13;;;;;;;5.63;3.40;;;7.60;99.90;;;;;;5074724;28;20020;-81
2023/04/15 04:06:39;;;;;;;4.65;3.17;;;7.60;99.90;;;;;;5086964;28;20032;-82
2023/04/15 04:09:04;;;;;;;5.65;3.58;;;7.60;99.90;;;;;;5074796;28;20411;-82
2023/04/15 04:11:30;;;;;;;5.40;3.55;;;7.60;99.90;;;;;;5075153;28;20027;-80
2023/04/15 04:13:56;;;;;;;4.88;3.40;;;7.50;99.90;;;;;;5086988;28;20020;-83
2023/04/15 04:16:21;;;;;;;6.00;3.50;;;7.50;99.90;;;;;;5086435;28;20051;-82
2023/04/15 04:18:47;;;;;;;6.10;3.20;;;7.50;99.90;;;;;;5073828;28;20039;-81
2023/04/15 04:21:12;;;;;;;5.43;4.00;;;7.50;99.90;;;;;;5085759;28;20092;-82
2023/04/15 04:23:38;;;;;;;4.32;2.83;;;7.40;99.90;;;;;;5085638;28;20039;-82
2023/04/15 04:26:04;;;;;;;6.05;3.78;;;7.40;99.90;;;;;;5087859;28;20028;-82
2023/04/15 04:28:29;;;;;;;6.70;4.05;;;7.40;99.90;;;;;;5086913;28;20035;-82
2023/04/15 04:30:55;;;;;;;6.85;3.65;;;7.40;99.90;;;;;;5086205;28;20043;-80
2023/04/15 04:33:21;;;;;;;5.72;3.53;;;7.30;99.90;;;;;;5086211;28;20027;-80
2023/04/15 04:35:46;;;;;;;6.47;3.80;;;7.30;99.90;;;;;;5074401;28;20474;-81
2023/04/15 04:38:12;;;;;;;8.65;3.88;;;7.30;99.90;;;;;;5085573;28;20039;-80
2023/04/15 04:40:38;;;;;;;5.38;3.80;;;7.30;99.90;;;;;;5071953;28;20073;-80
2023/04/15 04:43:03;;;;;;;6.75;4.25;;;7.30;99.90;;;;;;5067977;28;20024;-81
2023/04/15 04:45:29;;;;;;;5.93;4.13;;;7.20;99.90;;;;;;5086516;28;20028;-81
2023/04/15 04:47:54;;;;;;;6.13;3.38;;;7.20;99.90;;;;;;5086691;28;20144;-81
2023/04/15 04:50:20;;;;;;;5.07;3.22;;;7.20;99.90;;;;;;5072794;28;20115;-81
2023/04/15 04:52:46;;;;;;;5.60;3.85;;;7.20;99.90;;;;;;5073530;28;20123;-82
2023/04/15 04:55:12;;;;;;;4.95;3.13;;;7.20;99.90;;;;;;5072710;28;20031;-81
2023/04/15 04:57:38;;;;;;;4.95;3.40;;;7.10;99.90;;;;;;5086096;28;20036;-83
2023/04/15 05:00:07;;;;;;;6.75;3.63;;;7.10;99.90;;;;;;5074119;28;20030;-82
2023/04/15 05:02:32;;;;;;;5.13;3.08;;;7.10;99.90;;;;;;5090028;28;20024;-81
2023/04/15 05:04:58;;;;;;;5.70;4.22;;;7.00;99.90;;;;;;5091006;28;20032;-82
2023/04/15 05:07:24;;;;;;;5.15;3.47;;;7.00;99.90;;;;;;5077517;28;20022;-85
2023/04/15 05:09:49;;;;;;;6.13;4.13;;;7.00;99.90;;;;;;5090643;28;20043;-82
2023/04/15 05:12:15;;;;;;;5.95;4.07;;;7.00;99.90;;;;;;5089245;28;20057;-80
2023/04/15 05:14:41;;;;;;;6.57;3.83;;;7.00;99.90;;;;;;5076823;28;20024;-81
2023/04/15 05:17:07;;;;;;;6.72;3.92;;;7.00;99.90;;;;;;5076240;28;20370;-84
2023/04/15 05:19:33;;;;;;;5.68;3.78;;;7.00;99.90;;;;;;5077116;28;20137;-82
2023/04/15 05:21:59;;;;;;;5.55;4.05;;;6.90;99.90;;;;;;5089593;28;20391;-81
2023/04/15 05:24:25;;;;;;;5.55;3.90;;;6.90;99.90;;;;;;5076695;28;20055;-83
2023/04/15 05:26:50;;;;;;;6.20;4.78;;;6.90;99.90;;;;;;5075865;28;20052;-82
2023/04/15 05:29:16;;;;;;;5.78;3.92;;;6.90;99.90;;;;;;5077501;28;20019;-80
2023/04/15 05:31:42;;;;;;;7.18;5.05;;;6.90;99.90;;;;;;5089060;28;20103;-81
2023/04/15 05:34:07;;;;;;;8.15;5.35;;;7.00;99.90;;;;;;5076956;28;20028;-81
2023/04/15 05:36:33;;;;;;;7.97;5.72;;;7.00;99.90;;;;;;5070325;28;20533;-79
2023/04/15 05:38:59;;;;;;;8.32;5.05;;;7.00;99.90;;;;;;5090524;28;20043;-81
2023/04/15 05:41:25;;;;;;;5.60;4.32;;;7.10;99.90;;;;;;5088714;28;20393;-83
2023/04/15 05:43:50;;;;;;;6.75;4.70;;;7.10;99.90;;;;;;5088370;28;20017;-81
2023/04/15 05:46:16;;;;;;;6.05;4.65;;;7.10;99.90;;;;;;5071752;28;20027;-83
2023/04/15 05:48:41;;;;;;;6.72;4.40;;;7.10;99.90;;;;;;5089768;28;20036;-81
2023/04/15 05:51:08;;;;;;;9.70;4.97;;;7.20;99.90;;;;;;5089391;28;20499;-82
2023/04/15 05:53:33;;;;;;;7.55;4.55;;;7.20;99.90;;;;;;5070812;28;20024;-82
2023/04/15 05:55:59;;;;;;;8.50;5.35;;;7.30;99.90;;;;;;5071181;28;20047;-81
2023/04/15 05:58:25;;;;;;;8.07;5.82;;;7.30;99.90;;;;;;5074748;28;20718;-83
2023/04/15 06:00:51;;;;;;;7.78;5.32;;;7.40;99.90;;;;;;5078101;28;20381;-82
2023/04/15 06:03:17;;;;;;;9.18;5.88;;;7.50;99.90;;;;;;5076737;28;20020;-83
2023/04/15 06:05:43;;;;;;;7.20;5.72;;;7.60;99.90;;;;;;5070939;28;20032;-81
2023/04/15 06:08:10;;;;;;;7.32;5.43;;;7.80;99.90;;;;;;5089401;28;20027;-82
2023/04/15 06:10:36;;;;;;;7.05;5.35;;;7.90;99.90;;;;;;5088370;28;20050;-83
2023/04/15 06:13:03;;;;;;;7.15;4.93;;;8.00;99.90;;;;;;5088413;28;20066;-83
2023/04/15 06:15:30;;;;;;;7.63;4.70;;;8.10;99.90;;;;;;5077582;28;20055;-82
2023/04/15 06:17:56;;;;;;;6.85;4.75;;;8.10;99.90;;;;;;5088238;28;20394;-82
2023/04/15 06:20:21;;;;;;;6.85;4.72;;;8.20;99.90;;;;;;5074397;28;20028;-80
2023/04/15 06:22:47;;;;;;;6.18;4.47;;;8.30;99.90;;;;;;5075490;28;20055;-82
2023/04/15 06:25:13;;;;;;;7.18;4.60;;;8.30;99.90;;;;;;5075097;28;20028;-80
2023/04/15 06:27:38;;;;;;;7.35;5.40;;;8.30;99.90;;;;;;5087412;28;20083;-83
2023/04/15 06:30:05;;;;;;;9.15;6.38;;;8.40;99.90;;;;;;5088107;28;20064;-81
2023/04/15 06:32:31;;;;;;;7.72;5.65;;;8.40;99.90;;;;;;5086327;28;20027;-81
2023/04/15 06:34:57;;;;;;;8.73;5.40;;;8.40;99.90;;;;;;5088655;28;20024;-83
2023/04/15 06:37:22;;;;;;;8.60;5.43;;;8.40;99.90;;;;;;5082872;28;20034;-81
2023/04/15 06:39:48;;;;;;;7.55;5.38;;;8.50;99.90;;;;;;5073400;28;20035;-81
2023/04/15 06:42:14;;;;;;;7.85;5.72;;;8.50;99.90;;;;;;5075992;28;20077;-83
2023/04/15 06:44:40;;;;;;;8.93;5.10;;;8.50;99.90;;;;;;5073938;28;20456;-84
2023/04/15 06:47:05;;;;;;;8.15;5.80;;;8.60;99.90;;;;;;5077749;28;20057;-82
2023/04/15 06:49:32;;;;;;;8.77;5.63;;;8.60;99.90;;;;;;5087079;28;20035;-80
2023/04/15 06:51:59;;;;;;;8.43;6.03;;;8.60;99.90;;;;;;5075629;28;20025;-81
2023/04/15 06:54:25;;;;;;;7.65;5.32;;;8.60;99.90;;;;;;5088758;28;20027;-83
2023/04/15 06:56:51;;;;;;;9.68;5.72;;;8.60;99.90;;;;;;5087799;28;20048;-82
2023/04/15 06:59:17;;;;;;;9.93;5.95;;;8.70;99.90;;;;;;5087788;28;20036;-82
2023/04/15 07:01:42;;;;;;;8.60;6.75;;;8.70;99.90;;;;;;5074971;28;20039;-83
2023/04/15 07:04:08;;;;;;;9.05;6.22;;;8.70;99.90;;;;;;5074104;28;20028;-85
2023/04/15 07:06:34;;;;;;;8.63;6.28;;;8.70;99.90;;;;;;5076588;28;20031;-82
2023/04/15 07:09:02;;;;;;;9.10;5.85;;;8.70;99.90;;;;;;5077611;28;20379;-83
2023/04/15 07:11:27;;;;;;;9.88;6.25;;;8.70;99.90;;;;;;5074714;28;20028;-83
2023/04/15 07:13:53;;;;;;;9.43;6.32;;;8.70;99.90;;;;;;5074331;28;20068;-83
2023/04/15 07:16:18;;;;;;;9.70;5.68;;;8.70;99.90;;;;;;5074493;28;20486;-81
2023/04/15 07:18:44;;;;;;;7.90;5.25;;;8.70;99.90;;;;;;5074031;28;20120;-83
2023/04/15 07:21:10;;;;;;;7.60;4.93;;;8.70;99.90;;;;;;5087103;28;20038;-86
2023/04/15 07:23:35;;;;;;;7.35;5.07;;;8.70;99.90;;;;;;5074963;28;20028;-82
2023/04/15 07:26:02;;;;;;;6.75;4.68;;;8.70;99.90;;;;;;5087418;28;20032;-83
2023/04/15 07:28:28;;;;;;;7.43;4.80;;;8.80;99.90;;;;;;5087116;28;20036;-82
2023/04/15 07:30:55;;;;;;;6.63;4.30;;;8.80;99.90;;;;;;5073522;28;20085;-81
2023/04/15 07:33:21;;;;;;;6.40;4.32;;;8.80;99.90;;;;;;5088329;28;20012;-83
2023/04/15 07:35:47;;;;;;;6.55;4.43;;;8.80;99.90;;;;;;5073293;28;20023;-83
2023/04/15 07:38:13;;;;;;;7.07;4.90;;;8.90;99.90;;;;;;5076518;28;20520;-84
2023/04/15 07:40:39;;;;;;;6.97;5.07;;;8.90;99.90;;;;;;5087763;28;20020;-82
2023/04/15 07:43:05;;;;;;;6.97;4.95;;;9.00;99.90;;;;;;5086784;28;20035;-80
2023/04/15 07:45:31;;;;;;;6.65;4.40;;;9.00;99.90;;;;;;5072888;28;20513;-79
2023/04/15 07:47:56;;;;;;;6.22;4.13;;;9.10;99.90;;;;;;5075689;28;20055;-82
2023/04/15 07:50:23;;;;;;;6.93;4.60;;;9.20;99.90;;;;;;5075204;28;20474;-86
2023/04/15 07:52:52;;;;;;;6.40;4.13;;;9.20;99.90;;;;;;5076714;28;20020;-81
2023/04/15 07:55:20;;;;;;;7.28;4.55;;;9.30;99.90;;;;;;5087376;28;20394;-81
2023/04/15 07:57:46;;;;;;;5.68;3.85;;;9.40;99.90;;;;;;5087488;28;20047;-82
2023/04/15 08:00:12;;;;;;;5.93;3.70;;;9.40;99.90;;;;;;5076146;28;20019;-86
2023/04/15 08:02:38;;;;;;;7.13;4.60;;;9.50;99.90;;;;;;5086213;28;20635;-80
2023/04/15 08:05:04;;;;;;;7.18;4.65;;;9.60;99.90;;;;;;5073322;28;20151;-82
2023/04/15 08:07:30;;;;;;;6.82;4.60;;;9.70;99.90;;;;;;5085475;28;20058;-81
2023/04/15 08:09:56;;;;;;;8.05;5.32;;;9.80;99.90;;;;;;5086841;28;20510;-82
2023/04/15 08:12:22;;;;;;;6.05;4.30;;;9.90;99.90;;;;;;5074209;28;20106;-82
2023/04/15 08:14:50;;;;;;;6.57;4.45;;;10.00;99.90;;;;;;5087466;28;20115;-81
2023/04/15 08:17:15;;;;;;;6.97;4.55;;;10.10;99.90;;;;;;5087696;28;20024;-81
2023/04/15 08:19:41;;;;;;;7.28;4.50;;;10.30;99.90;;;;;;5087964;28;20062;-81
2023/04/15 08:22:07;;;;;;;7.03;4.82;;;10.40;99.90;;;;;;5087930;28;20020;-80
2023/04/15 08:24:33;;;;;;;5.57;4.00;;;10.50;99.90;;;;;;5072982;28;20081;-84
2023/04/15 08:26:58;;;;;;;5.63;4.05;;;10.60;99.90;;;;;;5088828;28;20438;-81
2023/04/15 08:29:24;;;;;;;5.78;3.08;;;10.70;99.90;;;;;;5088512;28;20797;-81
2023/04/15 08:31:50;;;;;;;5.55;4.00;;;10.90;99.90;;;;;;5074789;28;20032;-80
2023/04/15 08:34:17;;;;;;;5.53;3.90;;;10.90;99.90;;;;;;5073934;28;20028;-80
2023/04/15 08:36:42;;;;;;;4.95;3.10;;;11.00;99.90;;;;;;5076067;28;20020;-81
2023/04/15 08:39:08;;;;;;;4.25;2.85;;;11.10;99.90;;;;;;5091744;28;20047;-81
2023/04/15 08:42:07;;;;;;;5.25;3.28;;;11.20;99.90;;;;;;5080617;28;20016;-79
2023/04/15 08:44:33;;;;;;;4.32;3.10;;;11.30;99.90;;;;;;5063763;28;20039;-81
2023/04/15 08:47:06;;;;;;;3.70;2.65;;;11.30;99.90;;;;;;5092973;28;20028;-83
2023/04/15 08:49:34;;;;;;;3.83;2.23;;;11.40;99.90;;;;;;5091223;28;20031;-80
2023/04/15 08:52:00;;;;;;;4.25;2.72;;;11.50;99.90;;;;;;5078840;28;20028;-82
2023/04/15 08:54:27;;;;;;;4.75;2.75;;;11.50;99.90;;;;;;5091961;28;20032;-82
2023/04/15 08:56:53;;;;;;;4.28;2.78;;;11.50;99.90;;;;;;5089560;28;20043;-82
2023/04/15 08:59:20;;;;;;;3.85;2.35;;;11.50;99.90;;;;;;5077426;28;20039;-80
2023/04/15 09:01:47;;;;;;;4.63;2.40;;;11.60;99.90;;;;;;5077603;28;20136;-84
2023/04/15 09:04:13;;;;;;;4.47;2.78;;;11.70;99.90;;;;;;5079449;28;20626;-82
2023/04/15 09:06:39;;;;;;;3.78;2.50;;;11.70;99.90;;;;;;5090342;28;20042;-80
2023/04/15 09:09:05;;;;;;;3.83;2.15;;;11.60;99.90;;;;;;5074106;28;20020;-80
2023/04/15 09:11:31;;;;;;;4.85;2.42;;;11.70;99.90;;;;;;5077220;28;20443;-81
2023/04/15 09:13:56;;;;;;;3.10;1.52;;;11.80;99.90;;;;;;5079576;28;20055;-85
2023/04/15 09:16:22;;;;;;;3.25;1.95;;;11.80;99.90;;;;;;5079125;28;20054;-83
2023/04/15 09:18:48;;;;;;;3.75;2.10;;;11.90;99.90;;;;;;5091834;28;20031;-82
2023/04/15 09:21:16;;;;;;;4.50;2.40;;;12.00;99.90;;;;;;5078491;28;20107;-81
2023/04/15 09:23:58;;;;;;;2.50;1.70;;;12.00;99.90;;;;;;5077542;28;20059;-81
2023/04/15 09:26:33;;;;;;;2.92;2.00;;;12.20;99.90;;;;;;5079492;28;20044;-80
2023/04/15 09:29:12;;;;;;;3.50;2.30;;;12.30;99.90;;;;;;5080722;28;20036;-82
2023/04/15 09:31:38;;;;;;;3.33;2.25;;;12.40;99.90;;;;;;5078188;28;20031;-81
2023/04/15 09:34:04;;;;;;;4.60;2.40;;;12.50;99.90;;;;;;5092486;28;20124;-82
2023/04/15 09:36:51;;;;;;;4.00;2.47;;;12.50;99.90;;;;;;5077621;28;20038;-81
2023/04/15 09:39:17;;;;;;;4.05;2.67;;;12.60;99.90;;;;;;5070205;28;20130;-82
2023/04/15 09:41:43;;;;;;;3.78;2.67;;;12.80;99.90;;;;;;5090592;28;20032;-84
2023/04/15 09:44:25;;;;;;;3.97;2.30;;;13.20;99.90;;;;;;5078351;28;20396;-84
2023/04/15 09:46:51;;;;;;;4.20;2.05;;;13.60;99.90;;;;;;5077477;28;20031;-83
2023/04/15 09:49:16;;;;;;;2.97;2.00;;;14.00;99.90;;;;;;5075140;28;20028;-82
2023/04/15 09:51:43;;;;;;;3.22;2.38;;;14.30;99.90;;;;;;5076762;28;20553;-81
2023/04/15 09:54:08;;;;;;;2.45;1.88;;;14.50;99.90;;;;;;5077231;28;20359;-84
2023/04/15 09:56:41;;;;;;;4.32;2.22;;;14.70;99.90;;;;;;5091597;28;20246;-84
2023/04/15 09:59:07;;;;;;;3.55;2.00;;;14.70;99.90;;;;;;5088588;28;20501;-83
2023/04/15 10:01:33;;;;;;;2.45;1.58;;;14.70;99.90;;;;;;5089215;28;20072;-81
2023/04/15 10:04:03;;;;;;;2.80;1.67;;;14.60;99.90;;;;;;5090130;28;20032;-81
2023/04/15 10:06:29;;;;;;;4.25;2.60;;;14.70;99.90;;;;;;5091991;28;20055;-81
2023/04/15 10:08:59;;;;;;;3.42;2.45;;;14.70;99.90;;;;;;5073828;28;20474;-83
2023/04/15 10:11:28;;;;;;;4.43;2.22;;;14.70;99.90;;;;;;5091794;28;20028;-83
2023/04/15 10:13:56;;;;;;;2.67;1.90;;;14.70;99.90;;;;;;5090565;28;20028;-82
2023/04/15 10:16:25;;;;;;;3.33;2.20;;;14.70;99.90;;;;;;5090362;28;20099;-82
2023/04/15 10:18:54;;;;;;;3.15;1.90;;;14.80;99.90;;;;;;5078466;28;20032;-85
2023/04/15 10:21:21;;;;;;;2.95;1.92;;;14.90;99.90;;;;;;5090257;28;20516;-84
2023/04/15 10:23:47;;;;;;;4.13;2.20;;;15.40;99.90;;;;;;5078766;28;20020;-83
2023/04/15 10:26:14;;;;;;;2.42;1.80;;;15.90;99.90;;;;;;5091604;28;20511;-81
2023/04/15 10:28:40;;;;;;;3.97;1.80;;;16.50;99.90;;;;;;5090362;28;20114;-85
2023/04/15 10:31:17;;;;;;;2.95;1.55;;;17.10;99.90;;;;;;5090142;28;20099;-81
2023/04/15 10:33:47;;;;;;;2.47;1.50;;;17.90;99.90;;;;;;5074024;28;20028;-84
2023/04/15 10:36:14;;;;;;;2.00;1.30;;;18.40;99.90;;;;;;5071700;28;20110;-85
2023/04/15 10:38:44;;;;;;;3.40;1.50;;;18.80;99.90;;;;;;5078220;28;20063;-80
2023/04/15 10:41:20;;;;;;;2.20;1.30;;;18.90;99.90;;;;;;5080506;28;20033;-85
2023/04/15 10:44:00;;;;;;;3.20;1.88;;;19.00;99.90;;;;;;5076652;28;20035;-84
2023/04/15 10:46:40;;;;;;;3.83;1.90;;;18.60;99.90;;;;;;5088778;28;20216;-83
2023/04/15 10:49:11;;;;;;;2.20;1.30;;;18.20;99.90;;;;;;5088928;28;20032;-83
2023/04/15 10:51:41;;;;;;;4.65;1.67;;;18.30;99.90;;;;;;5089781;28;20538;-84
2023/04/15 10:54:35;;;;;;;1.60;1.20;;;18.10;99.90;;;;;;5089991;28;20077;-83
2023/04/15 10:57:00;;;;;;;2.17;1.02;;;17.50;99.90;;;;;;5071996;28;20052;-84
2023/04/15 10:59:29;;;;;;;2.13;1.13;;;17.70;99.90;;;;;;5089212;28;20081;-85
2023/04/15 11:02:01;;;;;;;1.92;1.00;;;18.40;99.90;;;;;;5090280;28;20638;-86
2023/04/15 11:04:58;;;;;;;2.05;1.08;;;19.00;99.90;;;;;;5074702;28;20067;-86
2023/04/15 11:07:43;;;;;;;2.05;1.10;;;19.40;99.90;;;;;;5089595;28;21964;-84
2023/04/15 11:10:17;;;;;;;1.42;0.98;;;19.70;99.90;;;;;;5088349;28;20016;-85
2023/04/15 11:13:00;;;;;;;1.90;1.30;;;19.60;99.90;;;;;;5078683;28;20032;-86
2023/04/15 11:15:32;;;;;;;1.87;1.17;;;19.40;99.90;;;;;;5076204;28;20493;-84
2023/04/15 11:18:18;;;;;;;2.40;1.20;;;19.60;99.90;;;;;;5077709;28;20120;-80
2023/04/15 11:20:56;;;;;;;3.13;1.48;;;19.90;99.90;;;;;;5077232;28;20041;-82
2023/04/15 11:23:38;;;;;;;1.98;1.00;;;19.80;99.90;;;;;;5074835;28;20019;-82
2023/04/15 11:26:08;;;;;;;1.35;0.90;;;19.50;99.90;;;;;;5080369;28;20038;-83
2023/04/15 11:28:34;;;;;;;1.88;0.90;;;19.00;99.90;;;;;;5075499;28;20028;-83
2023/04/15 11:31:10;;;;;;;2.90;1.00;;;18.90;99.90;;;;;;5077338;28;20020;-84
2023/04/15 11:33:36;;;;;;;1.52;0.70;;;18.70;99.90;;;;;;5077067;28;20028;-82
2023/04/15 11:36:03;;;;;;;2.05;1.00;;;18.50;99.90;;;;;;5069413;28;20020;-84
2023/04/15 11:38:28;;;;;;;2.42;1.35;;;18.10;99.90;;;;;;5085943;28;20066;-85
2023/04/15 11:40:54;;;;;;;1.65;1.05;;;17.70;99.90;;;;;;5074041;28;20431;-83
2023/04/15 11:43:21;;;;;;;1.30;0.70;;;17.50;99.90;;;;;;5087362;28;20024;-84
2023/04/15 11:45:53;;;;;;;3.15;1.10;;;18.20;99.90;;;;;;5087655;28;20458;-81
2023/04/15 11:48:24;;;;;;;2.45;1.05;;;19.30;99.90;;;;;;5074103;28;20070;-80
2023/04/15 11:51:01;;;;;;;1.38;0.73;;;20.00;99.50;;;;;;5086786;28;20078;-83
2023/04/15 11:53:49;;;;;;;2.17;0.82;;;20.50;98.60;;;;;;5075757;28;20790;-83
2023/04/15 11:56:23;;;;;;;1.88;0.70;;;20.10;98.20;;;;;;5072938;28;20044;-79
2023/04/15 11:58:58;;;;;;;1.63;0.90;;;19.60;98.40;;;;;;5073554;28;20039;-84
2023/04/15 12:01:41;;;;;;;1.65;0.80;;;19.10;98.40;;;;;;5086538;28;20024;-84
2023/04/15 12:04:19;;;;;;;1.17;0.70;;;19.20;98.70;;;;;;5074662;28;20032;-83
2023/04/15 12:06:45;;;;;;;1.35;0.75;;;19.30;98.10;;;;;;5075361;28;20038;-86
2023/04/15 12:09:15;;;;;;;1.30;0.68;;;19.50;97.90;;;;;;5069615;28;20100;-83
2023/04/15 12:11:51;;;;;;;2.25;0.88;;;19.70;97.40;;;;;;5089130;28;20031;-83
2023/04/15 12:14:25;;;;;;;2.55;1.10;;;19.70;97.70;;;;;;5089330;28;20287;-86
2023/04/15 12:16:54;;;;;;;1.45;0.80;;;19.50;96.80;;;;;;5076592;28;20115;-83
2023/04/15 12:19:25;;;;;;;2.97;0.80;;;19.50;97.20;;;;;;5088318;28;20119;-82
2023/04/15 12:21:52;;;;;;;1.60;0.90;;;19.80;96.40;;;;;;5075833;28;20305;-84
2023/04/15 12:24:22;;;;;;;2.65;1.10;;;19.60;96.40;;;;;;5071059;28;20024;-83
2023/04/15 12:26:56;;;;;;;1.20;0.60;;;19.10;96.70;;;;;;5072398;28;20053;-83
2023/04/15 12:29:28;;;;;;;1.45;0.63;;;18.40;97.10;;;;;;5090115;28;20493;-83
2023/04/15 12:32:04;;;;;;;1.73;0.65;;;18.30;97.70;;;;;;5089136;28;20031;-84
2023/04/15 12:34:32;;;;;;;1.33;0.73;;;18.70;97.60;;;;;;5089311;28;20020;-86
2023/04/15 12:37:00;;;;;;;0.82;0.50;;;19.30;97.00;;;;;;5078893;28;20044;-84
2023/04/15 12:39:31;;;;;;;0.70;0.50;;;19.90;96.90;;;;;;5073630;28;20139;-84
2023/04/15 12:41:58;;;;;;;1.52;0.80;;;20.30;96.60;;;;;;5084361;28;20094;-88
2023/04/15 12:44:24;;;;;;;1.83;0.88;;;20.30;96.40;;;;;;5075978;28;20027;-83
2023/04/15 12:46:54;;;;;;;1.48;1.00;;;19.80;96.80;;;;;;5089136;28;20028;-85
2023/04/15 12:49:20;;;;;;;3.72;0.98;;;19.30;96.60;;;;;;5075440;28;20464;-83
2023/04/15 12:51:51;;;;;;;2.83;1.17;;;18.80;96.90;;;;;;5090532;28;20024;-81
2023/04/15 12:54:17;;;;;;;3.63;1.42;;;18.40;97.20;;;;;;5079356;28;20020;-80